createdAt,value
2022-08-23T00:01:39.342Z,1.88
2022-08-23T00:03:42.536Z,1.70
2022-08-23T00:05:44.620Z,1.90
2022-08-23T00:07:46.645Z,2.40
2022-08-23T00:09:48.760Z,1.60
2022-08-23T00:11:54.327Z,2.20
2022-08-23T00:13:57.112Z,1.55
2022-08-23T00:16:00.562Z,1.95
2022-08-23T00:18:02.553Z,2.20
2022-08-23T00:20:06.844Z,2.20
2022-08-23T00:22:09.351Z,2.20
2022-08-23T00:24:12.154Z,1.63
2022-08-23T00:26:14.204Z,2.10
2022-08-23T00:28:16.193Z,1.65
2022-08-23T00:30:19.176Z,1.90
2022-08-23T00:32:32.901Z,1.48
2022-08-23T00:34:36.019Z,2.08
2022-08-23T00:36:38.371Z,1.90
2022-08-23T00:38:40.743Z,1.67
2022-08-23T00:40:45.483Z,1.65
2022-08-23T00:43:21.093Z,2.00
2022-08-23T00:46:10.770Z,1.70
2022-08-23T00:48:13.101Z,1.70
2022-08-23T00:50:49.306Z,1.85
2022-08-23T00:53:12.969Z,1.80
2022-08-23T00:55:16.663Z,1.70
2022-08-23T00:57:19.459Z,1.70
2022-08-23T01:01:23.682Z,1.30
2022-08-23T01:03:27.087Z,1.95
2022-08-23T01:05:36.539Z,1.67
2022-08-23T01:07:57.744Z,1.80
2022-08-23T01:10:02.505Z,1.65
2022-08-23T01:12:15.138Z,2.10
2022-08-23T01:14:29.947Z,1.63
2022-08-23T01:16:56.474Z,2.25
2022-08-23T01:18:58.475Z,1.80
2022-08-23T01:21:10.498Z,1.95
2022-08-23T01:23:40.004Z,1.77
2022-08-23T01:25:41.982Z,2.10
2022-08-23T01:27:45.770Z,2.05
2022-08-23T01:29:47.749Z,2.15
2022-08-23T01:31:50.468Z,1.88
2022-08-23T01:35:59.205Z,1.90
2022-08-23T01:38:02.145Z,2.33
2022-08-23T01:40:05.339Z,2.03
2022-08-23T01:42:08.181Z,1.90
2022-08-23T01:44:10.225Z,1.75
2022-08-23T01:46:18.045Z,2.33
2022-08-23T01:48:20.412Z,1.92
2022-08-23T01:50:22.417Z,1.95
2022-08-23T01:52:24.419Z,2.25
2022-08-23T01:54:26.445Z,2.40
2022-08-23T01:56:38.749Z,2.30
2022-08-23T01:58:41.438Z,2.03
2022-08-23T02:00:44.549Z,2.10
2022-08-23T02:02:47.232Z,2.90
2022-08-23T02:06:51.178Z,1.90
2022-08-23T02:09:03.509Z,2.10
2022-08-23T02:11:16.766Z,1.83
2022-08-23T02:15:20.784Z,2.03
2022-08-23T02:17:22.897Z,2.10
2022-08-23T02:19:25.164Z,2.33
2022-08-23T02:21:27.233Z,2.20
2022-08-23T02:23:29.342Z,1.80
2022-08-23T02:25:31.433Z,1.88
2022-08-23T02:27:33.432Z,2.00
2022-08-23T02:29:39.552Z,2.33
2022-08-23T02:31:41.813Z,2.22
2022-08-23T02:33:43.881Z,1.90
2022-08-23T02:35:46.156Z,2.15
2022-08-23T02:37:48.136Z,2.40
2022-08-23T02:39:50.270Z,1.98
2022-08-23T02:41:52.355Z,2.13
2022-08-23T02:43:54.514Z,1.80
2022-08-23T02:45:56.560Z,1.98
2022-08-23T02:47:58.725Z,2.20
2022-08-23T02:50:00.765Z,2.22
2022-08-23T02:52:04.048Z,2.20
2022-08-23T02:54:06.130Z,2.10
2022-08-23T02:56:13.004Z,2.13
2022-08-23T02:58:24.227Z,2.05
2022-08-23T03:00:26.319Z,1.95
2022-08-23T03:02:28.592Z,2.05
2022-08-23T03:04:31.206Z,2.55
2022-08-23T03:06:33.197Z,2.22
2022-08-23T03:08:35.219Z,2.30
2022-08-23T03:10:38.273Z,2.25
2022-08-23T03:12:40.331Z,2.50
2022-08-23T03:14:42.986Z,2.20
2022-08-23T03:16:45.077Z,3.10
2022-08-23T03:18:47.447Z,2.53
2022-08-23T03:20:49.462Z,2.30
2022-08-23T03:22:54.692Z,2.33
2022-08-23T03:24:57.385Z,2.20
2022-08-23T03:26:59.426Z,2.17
2022-08-23T03:29:02.070Z,2.15
2022-08-23T03:33:06.525Z,2.43
2022-08-23T03:35:10.956Z,2.20
2022-08-23T03:37:18.172Z,2.28
2022-08-23T03:39:20.298Z,2.33
2022-08-23T03:41:22.286Z,2.55
2022-08-23T03:43:24.458Z,2.50
2022-08-23T03:45:26.474Z,2.35
2022-08-23T03:47:29.014Z,2.50
2022-08-23T03:49:31.011Z,2.30
2022-08-23T03:51:34.348Z,2.30
2022-08-23T03:53:36.370Z,2.60
2022-08-23T03:55:38.537Z,2.53
2022-08-23T03:57:44.529Z,2.78
2022-08-23T03:59:48.286Z,2.10
2022-08-23T04:01:50.363Z,2.03
2022-08-23T04:03:52.417Z,2.38
2022-08-23T04:05:54.498Z,2.22
2022-08-23T04:07:56.479Z,2.20
2022-08-23T04:09:58.509Z,2.22
2022-08-23T04:12:00.511Z,2.15
2022-08-23T04:14:02.723Z,2.72
2022-08-23T04:16:05.319Z,2.13
2022-08-23T04:18:07.444Z,2.70
2022-08-23T04:20:11.930Z,2.25
2022-08-23T04:22:14.808Z,2.42
2022-08-23T04:24:17.456Z,2.47
2022-08-23T04:28:22.749Z,2.28
2022-08-23T04:30:24.922Z,2.78
2022-08-23T04:32:28.381Z,2.40
2022-08-23T04:34:33.950Z,2.42
2022-08-23T04:36:39.789Z,2.35
2022-08-23T04:38:41.795Z,2.40
2022-08-23T04:41:02.041Z,2.85
2022-08-23T04:43:04.681Z,3.03
2022-08-23T04:45:07.581Z,2.70
2022-08-23T04:47:09.583Z,2.42
2022-08-23T04:49:11.733Z,2.35
2022-08-23T04:51:13.979Z,2.38
2022-08-23T04:53:16.263Z,2.17
2022-08-23T04:55:18.303Z,2.58
2022-08-23T04:57:20.320Z,2.53
2022-08-23T04:59:22.483Z,2.40
2022-08-23T05:01:27.121Z,2.67
2022-08-23T05:03:29.872Z,2.40
2022-08-23T05:07:42.219Z,2.20
2022-08-23T05:09:45.936Z,2.58
2022-08-23T05:11:47.994Z,2.47
2022-08-23T05:13:50.097Z,2.90
2022-08-23T05:15:52.775Z,2.65
2022-08-23T05:19:56.866Z,2.28
2022-08-23T05:21:58.900Z,2.42
2022-08-23T05:24:02.168Z,2.97
2022-08-23T05:26:05.997Z,3.00
2022-08-23T05:28:08.359Z,2.83
2022-08-23T05:30:15.180Z,2.70
2022-08-23T05:32:17.593Z,3.17
2022-08-23T05:34:22.522Z,3.00
2022-08-23T05:36:25.045Z,2.83
2022-08-23T05:38:27.073Z,3.30
2022-08-23T05:40:29.154Z,2.40
2022-08-23T05:44:36.533Z,2.85
2022-08-23T05:46:39.029Z,2.60
2022-08-23T05:48:43.653Z,2.38
2022-08-23T05:50:45.686Z,2.65
2022-08-23T05:52:50.950Z,3.38
2022-08-23T05:54:53.263Z,2.97
2022-08-23T05:56:55.277Z,3.15
2022-08-23T05:59:00.258Z,4.20
2022-08-23T06:01:02.391Z,3.60
2022-08-23T06:03:04.548Z,4.50
2022-08-23T06:05:07.117Z,3.72
2022-08-23T06:09:14.925Z,4.40
2022-08-23T06:11:20.193Z,4.97
2022-08-23T06:13:22.188Z,4.22
2022-08-23T06:15:24.172Z,4.88
2022-08-23T06:17:26.428Z,5.28
2022-08-23T06:19:28.716Z,5.57
2022-08-23T06:21:30.847Z,5.05
2022-08-23T06:23:33.308Z,4.32
2022-08-23T06:25:39.310Z,5.15
2022-08-23T06:27:41.296Z,4.32
2022-08-23T06:29:43.506Z,4.80
2022-08-23T06:31:48.909Z,5.15
2022-08-23T06:33:51.128Z,4.30
2022-08-23T06:36:12.235Z,4.68
2022-08-23T06:38:14.244Z,4.85
2022-08-23T06:40:17.965Z,5.07
2022-08-23T06:42:38.484Z,5.13
2022-08-23T06:44:40.849Z,4.80
2022-08-23T06:46:42.957Z,4.75
2022-08-23T06:48:45.275Z,5.60
2022-08-23T06:50:47.801Z,5.10
2022-08-23T06:52:50.757Z,5.13
2022-08-23T06:54:53.130Z,5.38
2022-08-23T06:56:55.748Z,5.13
2022-08-23T06:58:57.870Z,4.75
2022-08-23T07:01:44.656Z,4.95
2022-08-23T07:03:47.507Z,4.82
2022-08-23T07:05:49.554Z,5.38
2022-08-23T07:07:51.562Z,5.80
2022-08-23T07:09:53.814Z,5.22
2022-08-23T07:11:56.257Z,5.20
2022-08-23T07:14:04.232Z,5.38
2022-08-23T07:16:06.630Z,5.85
2022-08-23T07:18:10.989Z,5.13
2022-08-23T07:20:15.717Z,5.68
2022-08-23T07:22:20.599Z,6.00
2022-08-23T07:24:23.024Z,6.18
2022-08-23T07:26:25.426Z,6.47
2022-08-23T07:28:29.881Z,6.38
2022-08-23T07:30:31.878Z,6.65
2022-08-23T07:32:33.919Z,6.43
2022-08-23T07:34:36.096Z,6.47
2022-08-23T07:36:38.205Z,7.18
2022-08-23T07:38:40.219Z,7.03
2022-08-23T07:40:42.269Z,7.65
2022-08-23T07:42:44.617Z,7.22
2022-08-23T07:44:46.692Z,8.00
2022-08-23T07:46:49.435Z,7.63
2022-08-23T07:48:54.619Z,8.30
2022-08-23T07:51:01.254Z,7.53
2022-08-23T07:53:04.449Z,7.32
2022-08-23T07:55:07.514Z,6.93
2022-08-23T07:57:09.581Z,6.95
2022-08-23T07:59:11.664Z,6.32
2022-08-23T08:01:25.253Z,6.57
2022-08-23T08:03:27.274Z,6.00
2022-08-23T08:05:32.060Z,6.32
2022-08-23T08:07:35.589Z,5.78
2022-08-23T08:09:40.005Z,6.22
2022-08-23T08:11:44.641Z,5.80
2022-08-23T08:13:48.255Z,5.70
2022-08-23T08:15:50.622Z,5.95
2022-08-23T08:17:52.906Z,6.05
2022-08-23T08:19:54.940Z,5.40
2022-08-23T08:21:56.954Z,5.68
2022-08-23T08:23:59.064Z,5.80
2022-08-23T08:26:05.778Z,6.43
2022-08-23T08:28:11.505Z,6.47
2022-08-23T08:30:17.419Z,5.40
2022-08-23T08:32:19.417Z,6.03
2022-08-23T08:34:21.496Z,6.00
2022-08-23T08:36:45.665Z,5.97
2022-08-23T08:38:48.469Z,6.15
2022-08-23T08:41:17.011Z,6.05
2022-08-23T08:43:54.802Z,6.05
2022-08-23T08:46:07.584Z,6.00
2022-08-23T08:48:13.514Z,6.13
2022-08-23T08:50:37.655Z,6.00
2022-08-23T08:52:45.475Z,6.13
2022-08-23T08:54:49.338Z,6.82
2022-08-23T08:56:58.077Z,6.20
2022-08-23T08:59:11.695Z,6.90
2022-08-23T09:01:16.239Z,6.85
2022-08-23T09:03:22.459Z,6.72
2022-08-23T09:05:33.583Z,6.72
2022-08-23T09:07:57.215Z,6.82
2022-08-23T09:10:24.248Z,5.93
2022-08-23T09:12:50.631Z,6.35
2022-08-23T09:14:58.119Z,6.25
2022-08-23T09:17:06.439Z,6.43
2022-08-23T09:19:08.456Z,5.75
2022-08-23T09:21:10.824Z,6.07
2022-08-23T09:23:40.677Z,6.53
2022-08-23T09:26:03.572Z,6.40
2022-08-23T09:28:06.160Z,6.40
2022-08-23T09:30:09.699Z,7.65
2022-08-23T09:32:37.665Z,6.35
2022-08-23T09:34:42.433Z,6.38
2022-08-23T09:36:44.488Z,5.97
2022-08-23T09:38:53.910Z,6.15
2022-08-23T09:40:56.456Z,6.68
2022-08-23T09:45:36.551Z,6.68
2022-08-23T09:47:44.367Z,6.68
2022-08-23T09:49:52.069Z,6.60
2022-08-23T09:51:55.878Z,7.22
2022-08-23T09:54:31.229Z,7.35
2022-08-23T09:56:38.797Z,6.40
2022-08-23T09:58:47.007Z,7.35
2022-08-23T10:01:19.411Z,7.00
2022-08-23T10:03:28.987Z,6.93
2022-08-23T10:05:38.232Z,7.15
2022-08-23T10:07:43.107Z,7.57
2022-08-23T10:09:45.250Z,6.88
2022-08-23T10:11:47.279Z,7.40
2022-08-23T10:13:49.293Z,7.18
2022-08-23T10:21:45.223Z,8.95
2022-08-23T10:24:14.307Z,8.93
2022-08-23T10:26:27.135Z,9.88
2022-08-23T10:31:15.499Z,9.38
2022-08-23T10:33:20.573Z,9.02
2022-08-23T10:35:35.273Z,9.38
2022-08-23T10:37:56.240Z,9.63
2022-08-23T10:40:29.019Z,9.90
2022-08-23T10:42:55.600Z,8.85
2022-08-23T10:45:25.439Z,9.02
2022-08-23T10:47:41.449Z,8.52
2022-08-23T10:49:52.497Z,7.50
2022-08-23T10:51:54.643Z,8.60
2022-08-23T10:54:16.401Z,7.47
2022-08-23T10:56:21.033Z,7.97
2022-08-23T10:58:26.937Z,7.60
2022-08-23T11:00:33.044Z,8.48
2022-08-23T11:02:42.783Z,8.13
2022-08-23T11:05:08.806Z,6.85
2022-08-23T11:07:42.908Z,6.63
2022-08-23T11:10:16.322Z,7.85
2022-08-23T11:12:27.629Z,7.03
2022-08-23T11:14:45.722Z,6.65
2022-08-23T11:16:48.784Z,6.70
2022-08-23T11:18:51.464Z,6.00
2022-08-23T11:20:53.408Z,5.22
2022-08-23T11:22:58.347Z,5.35
2022-08-23T11:25:00.261Z,5.78
2022-08-23T11:27:06.676Z,5.68
2022-08-23T11:29:11.658Z,5.10
2022-08-23T11:31:51.593Z,5.45
2022-08-23T11:34:20.953Z,5.93
2022-08-23T11:36:28.117Z,6.00
2022-08-23T11:38:48.352Z,6.05
2022-08-23T11:40:52.860Z,5.95
2022-08-23T11:42:55.493Z,6.10
2022-08-23T11:44:57.516Z,5.55
2022-08-23T11:47:01.814Z,5.93
2022-08-23T11:49:28.290Z,5.15
2022-08-23T11:51:47.299Z,5.25
2022-08-23T11:54:00.116Z,6.75
2022-08-23T11:56:23.993Z,6.57
2022-08-23T11:59:11.227Z,5.65
2022-08-23T12:01:14.056Z,6.30
2022-08-23T12:03:27.418Z,6.65
2022-08-23T12:06:02.498Z,6.93
2022-08-23T12:08:05.700Z,7.22
2022-08-23T12:10:07.777Z,7.30
2022-08-23T12:12:34.704Z,6.65
2022-08-23T12:14:51.667Z,5.82
2022-08-23T12:16:55.059Z,5.05
2022-08-23T12:19:04.730Z,4.95
2022-08-23T12:21:09.109Z,4.82
2022-08-23T12:23:17.656Z,5.57
2022-08-23T12:25:21.497Z,5.68
2022-08-23T12:27:33.477Z,5.57
2022-08-23T12:30:09.511Z,6.25
2022-08-23T12:33:03.068Z,5.78
2022-08-23T12:35:33.039Z,5.25
2022-08-23T12:37:41.096Z,5.63
2022-08-23T12:39:53.098Z,5.40
2022-08-23T12:42:07.313Z,4.80
2022-08-23T12:44:09.858Z,4.97
2022-08-23T12:46:11.895Z,5.25
2022-08-23T12:48:15.241Z,5.85
2022-08-23T12:50:32.507Z,5.40
2022-08-23T12:52:37.450Z,5.32
2022-08-23T12:54:46.536Z,5.35
2022-08-23T12:56:50.999Z,5.07
2022-08-23T12:58:56.298Z,5.78
2022-08-23T13:01:01.064Z,5.47
2022-08-23T13:03:11.800Z,5.90
2022-08-23T13:05:22.417Z,5.32
2022-08-23T13:07:26.650Z,5.78
2022-08-23T13:09:39.737Z,6.30
2022-08-23T13:11:42.080Z,6.03
2022-08-23T13:16:00.528Z,5.77
2022-08-23T13:18:02.664Z,5.70
2022-08-23T13:20:08.011Z,5.85
2022-08-23T13:22:19.449Z,5.75
2022-08-23T13:24:38.284Z,5.30
2022-08-23T13:26:42.851Z,4.97
2022-08-23T13:29:12.918Z,5.68
2022-08-23T13:31:14.969Z,5.55
2022-08-23T13:33:18.483Z,5.45
2022-08-23T13:35:31.221Z,5.65
2022-08-23T13:37:33.338Z,5.20
2022-08-23T13:39:35.379Z,5.57
2022-08-23T13:41:39.118Z,6.38
2022-08-23T13:43:44.267Z,6.22
2022-08-23T13:45:49.506Z,5.00
2022-08-23T13:47:56.811Z,5.60
2022-08-23T13:49:58.845Z,5.95
2022-08-23T13:52:37.611Z,6.03
2022-08-23T13:54:22.915Z,6.15
2022-08-23T13:56:25.159Z,6.43
2022-08-23T13:58:34.544Z,6.38
2022-08-23T14:00:36.584Z,6.60
2022-08-23T14:02:38.956Z,5.47
2022-08-23T14:06:43.369Z,5.40
2022-08-23T14:08:51.050Z,6.00
2022-08-23T14:10:53.190Z,5.95
2022-08-23T14:12:55.305Z,6.05
2022-08-23T14:14:57.694Z,5.68
2022-08-23T14:17:02.826Z,5.80
2022-08-23T14:21:28.425Z,6.20
2022-08-23T14:23:30.536Z,5.70
2022-08-23T14:25:32.632Z,5.50
2022-08-23T14:27:35.022Z,6.65
2022-08-23T14:31:38.934Z,5.60
2022-08-23T14:33:43.085Z,6.40
2022-08-23T14:35:45.120Z,6.03
2022-08-23T14:38:03.990Z,6.13
2022-08-23T14:40:07.007Z,6.20
2022-08-23T14:42:09.367Z,5.75
2022-08-23T14:46:16.265Z,6.50
2022-08-23T14:50:20.442Z,6.28
2022-08-23T14:52:22.679Z,6.22
2022-08-23T14:54:25.785Z,6.18
2022-08-23T14:56:27.900Z,6.18
2022-08-23T14:58:29.910Z,6.07
2022-08-23T15:00:33.112Z,6.68
2022-08-23T15:02:36.592Z,6.50
2022-08-23T15:04:39.077Z,5.40
2022-08-23T15:09:04.369Z,6.15
2022-08-23T15:13:35.495Z,5.30
2022-08-23T15:15:39.445Z,5.97
2022-08-23T15:17:52.728Z,6.03
2022-08-23T15:19:54.930Z,6.40
2022-08-23T15:21:58.067Z,6.53
2022-08-23T15:24:00.131Z,6.70
2022-08-23T15:26:02.210Z,6.13
2022-08-23T15:28:09.618Z,6.72
2022-08-23T15:30:15.971Z,6.68
2022-08-23T15:32:22.573Z,5.93
2022-08-23T15:34:25.264Z,6.30
2022-08-23T15:36:28.219Z,6.38
2022-08-23T15:38:31.174Z,6.05
2022-08-23T15:40:33.289Z,6.20
2022-08-23T15:42:35.743Z,5.95
2022-08-23T15:46:39.698Z,6.22
2022-08-23T15:49:02.020Z,7.03
2022-08-23T15:51:05.354Z,7.15
2022-08-23T15:53:07.375Z,6.65
2022-08-23T15:55:09.612Z,6.63
2022-08-23T15:57:23.373Z,6.78
2022-08-23T15:59:25.467Z,6.85
2022-08-23T16:01:30.307Z,6.45
2022-08-23T16:03:32.646Z,6.45
2022-08-23T16:07:38.857Z,6.45
2022-08-23T16:09:41.090Z,7.13
2022-08-23T16:11:43.129Z,6.68
2022-08-23T16:13:46.315Z,7.68
2022-08-23T16:15:48.371Z,7.03
2022-08-23T16:17:50.357Z,6.82
2022-08-23T16:19:53.035Z,7.30
2022-08-23T16:21:56.703Z,7.20
2022-08-23T16:23:59.017Z,7.05
2022-08-23T16:26:01.473Z,7.53
2022-08-23T16:28:04.305Z,7.28
2022-08-23T16:30:07.206Z,6.18
2022-08-23T16:32:11.847Z,6.97
2022-08-23T16:34:17.083Z,7.57
2022-08-23T16:36:19.693Z,7.30
2022-08-23T16:38:23.155Z,7.57
2022-08-23T16:40:25.244Z,7.55
2022-08-23T16:42:27.278Z,7.65
2022-08-23T16:44:29.392Z,7.75
2022-08-23T16:46:31.452Z,8.13
2022-08-23T16:48:34.190Z,8.45
2022-08-23T16:50:36.179Z,8.77
2022-08-23T16:52:38.189Z,7.63
2022-08-23T16:54:40.207Z,8.80
2022-08-23T16:56:42.618Z,7.97
2022-08-23T16:58:44.912Z,8.25
2022-08-23T17:00:47.225Z,8.20
2022-08-23T17:02:49.307Z,8.23
2022-08-23T17:04:52.747Z,8.05
2022-08-23T17:06:55.192Z,8.60
2022-08-23T17:08:57.178Z,9.40
2022-08-23T17:11:03.054Z,8.25
2022-08-23T17:13:05.502Z,9.13
2022-08-23T17:15:09.097Z,9.27
2022-08-23T17:17:12.898Z,7.70
2022-08-23T17:19:14.898Z,8.02
2022-08-23T17:21:17.031Z,7.30
2022-08-23T17:23:19.067Z,7.72
2022-08-23T17:25:21.052Z,8.40
2022-08-23T17:27:24.609Z,8.48
2022-08-23T17:29:27.670Z,7.10
2022-08-23T17:31:32.887Z,7.20
2022-08-23T17:33:34.893Z,6.32
2022-08-23T17:35:37.209Z,5.88
2022-08-23T17:37:39.262Z,5.28
2022-08-23T17:39:41.385Z,5.50
2022-08-23T17:41:45.464Z,5.80
2022-08-23T17:43:48.024Z,6.28
2022-08-23T17:45:51.118Z,4.78
2022-08-23T17:47:53.358Z,4.47
2022-08-23T17:49:55.410Z,4.78
2022-08-23T17:51:57.480Z,4.65
2022-08-23T17:53:59.481Z,4.00
2022-08-23T17:56:02.128Z,5.15
2022-08-23T17:58:08.062Z,4.32
2022-08-23T18:00:12.919Z,4.18
2022-08-23T18:02:15.350Z,4.68
2022-08-23T18:04:17.669Z,5.03
2022-08-23T18:06:19.775Z,4.55
2022-08-23T18:08:21.880Z,4.25
2022-08-23T18:10:25.447Z,4.78
2022-08-23T18:12:27.436Z,4.10
2022-08-23T18:14:29.447Z,4.75
2022-08-23T18:16:35.289Z,4.35
2022-08-23T18:18:38.037Z,4.28
2022-08-23T18:20:40.021Z,5.03
2022-08-23T18:22:42.101Z,4.53
2022-08-23T18:24:44.150Z,4.32
2022-08-23T18:27:04.960Z,4.10
2022-08-23T18:29:07.529Z,3.80
2022-08-23T18:33:12.957Z,3.47
2022-08-23T18:35:15.105Z,4.35
2022-08-23T18:37:17.287Z,4.53
2022-08-23T18:39:29.230Z,5.20
2022-08-23T18:41:34.307Z,7.25
2022-08-23T18:43:37.387Z,6.25
2022-08-23T18:45:39.922Z,4.10
2022-08-23T18:47:42.047Z,3.45
2022-08-23T18:49:44.038Z,3.80
2022-08-23T18:51:46.078Z,3.85
2022-08-23T18:53:48.057Z,3.67
2022-08-23T18:55:50.520Z,3.85
2022-08-23T18:57:52.511Z,4.60
2022-08-23T18:59:54.732Z,3.65
2022-08-23T19:01:56.924Z,4.30
2022-08-23T19:04:00.269Z,4.07
2022-08-23T19:06:02.286Z,3.78
2022-08-23T19:08:05.194Z,4.30
2022-08-23T19:10:07.821Z,3.90
2022-08-23T19:14:12.770Z,4.10
2022-08-23T19:16:15.629Z,4.18
2022-08-23T19:18:17.698Z,4.00
2022-08-23T19:20:20.137Z,4.05
2022-08-23T19:22:22.138Z,4.28
2022-08-23T19:24:24.792Z,3.97
2022-08-23T19:28:34.819Z,4.60
2022-08-23T19:30:36.849Z,4.75
2022-08-23T19:32:39.629Z,4.88
2022-08-23T19:34:42.288Z,4.63
2022-08-23T19:38:52.484Z,4.82
2022-08-23T19:40:56.001Z,4.50
2022-08-23T19:42:59.879Z,5.55
2022-08-23T19:45:01.925Z,4.93
2022-08-23T19:47:05.219Z,5.10
2022-08-23T19:49:14.765Z,4.45
2022-08-23T19:51:18.730Z,5.80
2022-08-23T19:53:20.808Z,5.22
2022-08-23T19:55:24.064Z,4.72
2022-08-23T19:57:26.382Z,4.70
2022-08-23T19:59:35.228Z,4.30
2022-08-23T20:01:37.310Z,5.13
2022-08-23T20:03:39.350Z,4.60
2022-08-23T20:05:42.143Z,4.57
2022-08-23T20:07:44.566Z,5.22
2022-08-23T20:09:46.616Z,5.30
2022-08-23T20:11:49.731Z,5.32
2022-08-23T20:13:53.816Z,5.13
2022-08-23T20:15:56.503Z,5.07
2022-08-23T20:20:00.941Z,4.73
2022-08-23T20:22:23.108Z,5.32
2022-08-23T20:24:42.533Z,5.93
2022-08-23T20:26:49.485Z,6.32
2022-08-23T20:28:59.603Z,6.10
2022-08-23T20:31:25.779Z,6.32
2022-08-23T20:33:27.993Z,6.05
2022-08-23T20:35:30.048Z,7.18
2022-08-23T20:37:32.058Z,5.50
2022-08-23T20:39:34.121Z,5.90
2022-08-23T20:41:37.276Z,5.93
2022-08-23T20:43:39.701Z,5.68
2022-08-23T20:45:41.701Z,5.57
2022-08-23T20:47:49.974Z,5.05
2022-08-23T20:49:52.063Z,4.32
2022-08-23T20:51:54.063Z,5.10
2022-08-23T20:53:57.752Z,5.32
2022-08-23T20:56:00.142Z,5.50
2022-08-23T20:58:03.463Z,4.68
2022-08-23T21:00:07.252Z,5.03
2022-08-23T21:02:09.291Z,4.97
2022-08-23T21:04:12.653Z,5.10
2022-08-23T21:06:30.673Z,5.53
2022-08-23T21:08:32.993Z,5.60
2022-08-23T21:10:36.923Z,5.25
2022-08-23T21:12:41.149Z,5.30
2022-08-23T21:14:43.121Z,5.30
2022-08-23T21:16:45.765Z,6.40
2022-08-23T21:20:52.092Z,5.70
2022-08-23T21:22:54.137Z,5.25
2022-08-23T21:24:56.764Z,5.68
2022-08-23T21:29:01.200Z,5.32
2022-08-23T21:31:10.627Z,5.45
2022-08-23T21:33:12.672Z,5.40
2022-08-23T21:35:14.666Z,6.20
2022-08-23T21:37:16.686Z,5.28
2022-08-23T21:39:19.197Z,5.57
2022-08-23T21:41:31.239Z,5.93
2022-08-23T21:43:33.426Z,5.32
2022-08-23T21:45:35.475Z,5.38
2022-08-23T21:47:43.555Z,5.85
2022-08-23T21:49:45.582Z,6.32
2022-08-23T21:51:49.269Z,5.90
2022-08-23T21:53:51.337Z,6.00
2022-08-23T21:55:53.331Z,5.72
2022-08-23T21:59:58.376Z,6.28
2022-08-23T22:02:00.550Z,5.82
2022-08-23T22:04:06.081Z,6.13
2022-08-23T22:06:16.029Z,5.28
2022-08-23T22:08:24.892Z,5.85
2022-08-23T22:10:27.682Z,6.65
2022-08-23T22:12:29.956Z,5.90
2022-08-23T22:14:32.194Z,6.35
2022-08-23T22:16:34.833Z,6.03
2022-08-23T22:20:38.785Z,5.82
2022-08-23T22:22:42.818Z,7.03
2022-08-23T22:24:46.415Z,6.35
2022-08-23T22:26:48.478Z,6.43
2022-08-23T22:28:50.664Z,5.60
2022-08-23T22:30:54.614Z,6.68
2022-08-23T22:32:58.898Z,6.57
2022-08-23T22:35:00.936Z,6.47
2022-08-23T22:37:03.087Z,6.70
2022-08-23T22:39:05.335Z,5.97
2022-08-23T22:41:07.377Z,6.55
2022-08-23T22:43:09.378Z,6.80
2022-08-23T22:45:11.789Z,6.38
2022-08-23T22:47:13.802Z,5.85
2022-08-23T22:49:15.906Z,6.38
2022-08-23T22:51:24.596Z,5.93
2022-08-23T22:53:26.635Z,6.15
2022-08-23T22:55:28.956Z,6.50
2022-08-23T22:57:31.187Z,6.53
2022-08-23T22:59:33.314Z,7.05
2022-08-23T23:01:39.870Z,6.30
2022-08-23T23:03:42.434Z,6.63
2022-08-23T23:05:44.503Z,6.38
2022-08-23T23:08:04.940Z,6.22
2022-08-23T23:10:07.411Z,6.47
2022-08-23T23:12:09.525Z,6.93
2022-08-23T23:14:12.021Z,6.05
2022-08-23T23:16:17.578Z,6.60
2022-08-23T23:18:19.683Z,6.57
2022-08-23T23:20:38.025Z,6.22
2022-08-23T23:22:40.089Z,6.07
2022-08-23T23:24:42.053Z,6.85
2022-08-23T23:26:47.543Z,6.95
2022-08-23T23:28:49.851Z,7.07
2022-08-23T23:30:53.119Z,7.13
2022-08-23T23:32:55.779Z,7.55
2022-08-23T23:34:57.853Z,7.38
2022-08-23T23:37:06.398Z,7.25
2022-08-23T23:39:09.838Z,6.65
2022-08-23T23:41:12.342Z,7.43
2022-08-23T23:43:14.362Z,7.47
2022-08-23T23:45:16.816Z,6.25
2022-08-23T23:47:18.820Z,6.70
2022-08-23T23:49:23.744Z,7.18
2022-08-23T23:51:34.778Z,6.47
2022-08-23T23:53:37.613Z,6.45
2022-08-23T23:55:39.682Z,6.50
2022-08-23T23:57:41.678Z,6.93
2022-08-23T23:59:44.314Z,6.82
